Time;durP1;ratioP1;P1;durP2;ratioP2;P2;SDS_P1;SDS_P2;PMS_P1;PMS_P2;Temp;Humidity;BMP_temperature;BMP_pressure;BME280_temperature;BME280_humidity;BME280_pressure;Samples;Min_cycle;Max_cycle;Signal;HPM_P1;HPM_P2
2023/09/15 00:02:57;;;;;;;5.28;2.90;;;24.00;58.40;;;;;;6242705;28;20039;-77
2023/09/15 00:05:58;;;;;;;6.82;2.47;;;23.90;58.40;;;;;;6241486;28;20448;-80
2023/09/15 00:08:59;;;;;;;3.75;2.55;;;23.90;58.60;;;;;;6223899;28;20458;-76
2023/09/15 00:12:00;;;;;;;5.03;2.85;;;23.90;58.70;;;;;;6240303;28;20047;-77
2023/09/15 00:15:07;;;;;;;10.45;3.05;;;23.80;58.60;;;;;;6240684;28;20030;-77
2023/09/15 00:18:07;;;;;;;4.93;2.65;;;23.80;58.80;;;;;;6242604;28;20515;-77
2023/09/15 00:21:09;;;;;;;6.88;2.55;;;23.80;58.80;;;;;;6240841;28;20041;-78
2023/09/15 00:24:10;;;;;;;2.95;2.42;;;23.80;58.90;;;;;;6239672;28;20570;-79
2023/09/15 00:27:11;;;;;;;2.92;2.22;;;23.80;58.90;;;;;;6223491;28;20041;-78
2023/09/15 00:30:13;;;;;;;5.95;2.85;;;23.80;58.90;;;;;;6238243;28;20087;-76
2023/09/15 00:33:14;;;;;;;10.57;2.45;;;23.80;58.80;;;;;;6223292;28;20116;-77
2023/09/15 00:36:15;;;;;;;4.72;2.60;;;23.80;58.70;;;;;;6216065;28;20120;-77
2023/09/15 00:39:15;;;;;;;6.72;2.58;;;23.80;58.80;;;;;;6216420;28;20034;-76
2023/09/15 00:42:19;;;;;;;3.05;2.42;;;23.80;58.80;;;;;;6214866;28;20029;-77
2023/09/15 00:45:21;;;;;;;3.33;2.22;;;23.80;58.80;;;;;;6225647;28;20101;-77
2023/09/15 00:48:22;;;;;;;4.45;2.72;;;23.80;58.90;;;;;;6239136;28;20480;-76
2023/09/15 00:51:25;;;;;;;6.00;2.30;;;23.80;58.80;;;;;;6240288;28;20095;-77
2023/09/15 00:54:28;;;;;;;3.80;2.33;;;23.80;58.90;;;;;;6238579;28;20153;-77
2023/09/15 00:57:29;;;;;;;3.78;2.22;;;23.80;59.10;;;;;;6239963;28;20037;-77
2023/09/15 01:00:30;;;;;;;5.60;2.40;;;23.70;59.20;;;;;;6238880;28;20029;-78
2023/09/15 01:03:34;;;;;;;6.30;3.38;;;23.60;59.20;;;;;;6237709;28;20041;-78
2023/09/15 01:06:37;;;;;;;8.82;2.70;;;23.60;59.20;;;;;;6238170;28;20091;-77
2023/09/15 01:09:40;;;;;;;3.03;2.08;;;23.60;59.30;;;;;;6238627;28;20068;-77
2023/09/15 01:12:43;;;;;;;3.97;2.35;;;23.60;59.20;;;;;;6240846;28;20037;-78
2023/09/15 01:16:03;;;;;;;4.75;3.03;;;23.60;59.20;;;;;;6239148;28;20037;-77
2023/09/15 01:19:53;;;;;;;3.50;2.60;;;23.70;59.30;;;;;;6238983;28;20139;-76
2023/09/15 01:23:25;;;;;;;7.32;2.90;;;23.70;59.30;;;;;;6215682;28;20053;-78
2023/09/15 01:27:04;;;;;;;5.95;2.60;;;23.70;59.40;;;;;;6225564;28;20238;-76
2023/09/15 01:30:06;;;;;;;3.60;2.20;;;23.60;59.30;;;;;;6260622;28;20045;-76
2023/09/15 01:33:09;;;;;;;4.35;2.67;;;23.70;59.30;;;;;;6260344;28;20112;-78
2023/09/15 01:36:09;;;;;;;4.63;2.50;;;23.70;59.30;;;;;;6243423;28;20064;-76
2023/09/15 01:39:11;;;;;;;3.75;2.33;;;23.70;59.30;;;;;;6244860;28;20531;-78
2023/09/15 01:42:13;;;;;;;3.28;2.40;;;23.60;59.20;;;;;;6227197;28;20125;-77
2023/09/15 01:45:13;;;;;;;4.70;2.40;;;23.60;59.40;;;;;;6255528;28;20045;-76
2023/09/15 01:48:15;;;;;;;6.53;2.83;;;23.60;59.40;;;;;;6223418;28;20068;-77
2023/09/15 01:51:17;;;;;;;4.80;2.50;;;23.50;59.40;;;;;;6240790;28;20038;-77
2023/09/15 01:54:18;;;;;;;4.25;2.60;;;23.50;59.60;;;;;;6225367;28;20037;-77
2023/09/15 01:57:19;;;;;;;3.22;1.98;;;23.60;59.60;;;;;;6224720;28;20458;-77
2023/09/15 02:00:20;;;;;;;3.50;2.53;;;23.40;59.70;;;;;;6224165;28;20183;-77
2023/09/15 02:03:22;;;;;;;4.07;2.47;;;23.40;59.70;;;;;;6224644;28;20037;-78
2023/09/15 02:06:23;;;;;;;5.30;2.75;;;23.40;59.80;;;;;;6217570;28;20349;-77
2023/09/15 02:09:24;;;;;;;8.20;3.10;;;23.40;59.90;;;;;;6230539;28;20191;-76
2023/09/15 02:12:25;;;;;;;3.60;1.90;;;23.40;59.80;;;;;;6238620;28;20033;-77
2023/09/15 02:15:26;;;;;;;2.85;2.10;;;23.40;59.80;;;;;;6244688;28;20115;-76
2023/09/15 02:18:35;;;;;;;4.35;2.78;;;23.30;59.70;;;;;;6245723;28;20033;-77
2023/09/15 02:21:42;;;;;;;2.85;2.15;;;23.30;59.80;;;;;;6223590;28;20140;-76
2023/09/15 02:24:43;;;;;;;3.30;2.28;;;23.20;59.90;;;;;;6226298;28;20110;-77
2023/09/15 02:27:44;;;;;;;3.63;2.35;;;23.20;60.00;;;;;;6219297;28;20038;-76
2023/09/15 02:30:47;;;;;;;3.63;2.45;;;23.10;60.00;;;;;;6216788;28;20136;-78
2023/09/15 02:33:48;;;;;;;4.95;3.05;;;23.10;60.10;;;;;;6218169;28;20065;-76
2023/09/15 02:36:49;;;;;;;19.20;11.23;;;23.00;60.20;;;;;;6219529;28;20398;-78
2023/09/15 02:39:50;;;;;;;19.60;10.80;;;23.00;60.40;;;;;;6216841;28;20034;-76
2023/09/15 02:42:50;;;;;;;20.05;5.80;;;22.90;60.60;;;;;;6216347;28;20048;-78
2023/09/15 02:45:51;;;;;;;6.88;3.20;;;22.90;60.90;;;;;;6231867;28;20503;-78
2023/09/15 02:48:53;;;;;;;3.72;2.55;;;22.80;61.10;;;;;;6240977;28;20025;-77
2023/09/15 02:51:57;;;;;;;4.82;2.55;;;22.80;61.20;;;;;;6226311;28;20057;-77
2023/09/15 02:54:57;;;;;;;4.85;2.50;;;22.80;61.20;;;;;;6242301;28;20029;-77
2023/09/15 02:57:59;;;;;;;5.60;2.70;;;22.80;61.30;;;;;;6242102;28;20039;-77
2023/09/15 03:01:09;;;;;;;3.58;2.67;;;22.80;61.50;;;;;;6242091;28;20037;-76
2023/09/15 03:04:10;;;;;;;6.25;2.75;;;22.80;61.50;;;;;;6226452;28;20536;-77
2023/09/15 03:07:11;;;;;;;4.50;2.28;;;22.90;61.50;;;;;;6226318;28;20047;-76
2023/09/15 03:10:13;;;;;;;3.67;2.50;;;22.80;61.40;;;;;;6242411;28;20099;-77
2023/09/15 03:13:14;;;;;;;3.95;2.53;;;22.80;61.50;;;;;;6242711;28;20057;-77
2023/09/15 03:16:15;;;;;;;4.55;2.45;;;22.70;61.60;;;;;;6242555;28;20048;-76
2023/09/15 03:19:19;;;;;;;4.90;2.65;;;22.70;61.80;;;;;;6249691;28;20028;-76
2023/09/15 03:22:20;;;;;;;3.92;2.72;;;22.70;61.80;;;;;;6265127;28;20134;-76
2023/09/15 03:25:21;;;;;;;5.22;2.30;;;22.70;61.90;;;;;;6265691;28;20033;-78
2023/09/15 03:28:22;;;;;;;7.15;2.35;;;22.60;62.00;;;;;;6267628;28;20037;-76
2023/09/15 03:31:23;;;;;;;5.30;2.65;;;22.60;62.10;;;;;;6265801;28;20165;-77
2023/09/15 03:34:24;;;;;;;4.85;2.88;;;22.60;62.10;;;;;;6266116;28;20035;-76
2023/09/15 03:37:25;;;;;;;5.60;2.85;;;22.60;62.10;;;;;;6266701;28;20035;-76
2023/09/15 03:40:26;;;;;;;6.80;3.05;;;22.60;62.10;;;;;;6266305;28;20061;-77
2023/09/15 03:43:27;;;;;;;5.35;2.75;;;22.50;62.20;;;;;;6245355;28;20040;-77
2023/09/15 03:46:29;;;;;;;7.40;3.28;;;22.50;62.20;;;;;;6242600;28;20456;-76
2023/09/15 03:49:30;;;;;;;6.97;3.00;;;22.50;62.40;;;;;;6240800;28;20033;-77
2023/09/15 03:52:31;;;;;;;6.55;2.45;;;22.50;62.70;;;;;;6241627;28;20143;-77
2023/09/15 03:55:32;;;;;;;12.30;2.60;;;22.40;62.90;;;;;;6243210;28;20037;-77
2023/09/15 03:58:33;;;;;;;5.30;2.60;;;22.40;63.10;;;;;;6241118;28;20037;-77
2023/09/15 04:01:35;;;;;;;4.32;2.47;;;22.30;63.20;;;;;;6240925;28;20378;-76
2023/09/15 04:04:36;;;;;;;2.97;2.53;;;22.30;63.30;;;;;;6241370;28;20052;-76
2023/09/15 04:07:38;;;;;;;5.30;2.88;;;22.30;63.50;;;;;;6241114;28;20103;-78
2023/09/15 04:10:39;;;;;;;5.25;3.00;;;22.30;63.60;;;;;;6235770;28;20033;-75
2023/09/15 04:13:39;;;;;;;4.47;3.00;;;22.20;63.50;;;;;;6217932;28;20482;-78
2023/09/15 04:16:40;;;;;;;3.47;2.40;;;22.20;63.40;;;;;;6225194;28;20036;-77
2023/09/15 04:19:41;;;;;;;3.70;2.47;;;22.20;63.50;;;;;;6217004;28;20188;-77
2023/09/15 04:22:43;;;;;;;4.18;3.20;;;22.30;63.40;;;;;;6215558;28;20040;-78
2023/09/15 04:25:44;;;;;;;4.78;2.65;;;22.30;63.30;;;;;;6217061;28;20034;-77
2023/09/15 04:28:45;;;;;;;3.58;2.40;;;22.30;63.20;;;;;;6215007;28;20030;-77
2023/09/15 04:31:46;;;;;;;6.10;2.90;;;22.30;63.20;;;;;;6216079;28;20050;-77
2023/09/15 04:34:49;;;;;;;3.90;2.22;;;22.30;63.10;;;;;;6215287;28;20525;-77
2023/09/15 04:37:50;;;;;;;4.63;2.85;;;22.30;63.10;;;;;;6204281;28;20032;-76
2023/09/15 04:40:52;;;;;;;3.95;2.83;;;22.30;63.10;;;;;;6239471;28;20041;-76
2023/09/15 04:43:53;;;;;;;7.90;2.80;;;22.30;63.10;;;;;;6239127;28;20033;-77
2023/09/15 04:46:54;;;;;;;4.78;2.33;;;22.30;63.20;;;;;;6240698;28;20057;-77
2023/09/15 04:49:55;;;;;;;4.10;2.80;;;22.30;63.20;;;;;;6222439;28;20033;-76
2023/09/15 04:52:58;;;;;;;7.10;3.10;;;22.30;63.20;;;;;;6240878;28;20029;-77
2023/09/15 04:55:59;;;;;;;12.95;2.78;;;22.20;63.30;;;;;;6239556;28;20032;-78
2023/09/15 04:59:00;;;;;;;4.93;2.60;;;22.20;63.40;;;;;;6239893;28;20044;-77
2023/09/15 05:02:02;;;;;;;4.20;2.80;;;22.20;63.50;;;;;;6240457;28;20094;-76
2023/09/15 05:05:03;;;;;;;10.60;2.97;;;22.10;63.50;;;;;;6224264;28;20056;-78
2023/09/15 05:08:04;;;;;;;12.00;3.22;;;22.10;63.60;;;;;;6242899;28;20029;-78
2023/09/15 05:11:08;;;;;;;3.85;2.70;;;22.10;63.60;;;;;;6245599;28;20072;-79
2023/09/15 05:14:09;;;;;;;5.10;2.88;;;22.10;63.70;;;;;;6225940;28;20419;-78
2023/09/15 05:17:10;;;;;;;7.50;2.70;;;22.10;63.70;;;;;;6225314;28;20062;-78
2023/09/15 05:20:11;;;;;;;3.15;2.50;;;22.00;63.70;;;;;;6224627;28;20025;-77
2023/09/15 05:23:13;;;;;;;7.72;3.28;;;22.00;63.70;;;;;;6217929;28;20042;-77
2023/09/15 05:26:14;;;;;;;8.52;3.00;;;22.00;63.70;;;;;;6197205;28;20140;-77
2023/09/15 05:29:15;;;;;;;3.88;2.70;;;22.00;63.70;;;;;;6216795;28;20029;-78
2023/09/15 05:32:17;;;;;;;5.25;2.88;;;22.00;63.70;;;;;;6228455;28;20506;-77
2023/09/15 05:35:18;;;;;;;5.18;2.95;;;22.00;64.50;;;;;;6230751;28;20120;-79
2023/09/15 05:38:19;;;;;;;4.30;2.55;;;22.00;64.00;;;;;;6237054;28;20112;-77
2023/09/15 05:41:20;;;;;;;3.72;2.70;;;22.00;64.00;;;;;;6226610;28;20040;-78
2023/09/15 05:44:21;;;;;;;6.15;3.10;;;21.90;63.90;;;;;;6223723;28;20874;-78
2023/09/15 05:47:22;;;;;;;11.38;3.55;;;21.90;63.90;;;;;;6236333;28;20493;-78
2023/09/15 05:50:23;;;;;;;5.20;2.97;;;21.90;63.90;;;;;;6238510;28;20503;-77
2023/09/15 05:53:24;;;;;;;14.73;3.10;;;21.90;63.90;;;;;;6240997;28;20021;-78
2023/09/15 05:56:25;;;;;;;4.15;2.80;;;21.90;64.00;;;;;;6225980;28;20044;-78
2023/09/15 05:59:28;;;;;;;6.85;2.72;;;22.00;64.10;;;;;;6212036;28;20121;-77
2023/09/15 06:02:29;;;;;;;4.38;3.20;;;22.00;64.10;;;;;;6238078;28;20453;-78
2023/09/15 06:05:30;;;;;;;4.75;2.97;;;21.90;64.00;;;;;;6235219;28;20069;-76
2023/09/15 06:08:31;;;;;;;11.35;3.00;;;21.90;63.90;;;;;;6230706;28;20038;-78
2023/09/15 06:11:32;;;;;;;9.80;3.85;;;21.90;63.90;;;;;;6219100;28;20074;-78
2023/09/15 06:14:35;;;;;;;11.85;3.83;;;21.90;64.00;;;;;;6211871;28;20038;-77
2023/09/15 06:17:36;;;;;;;7.03;3.28;;;21.80;64.20;;;;;;6218650;28;20030;-77
2023/09/15 06:20:38;;;;;;;6.95;3.72;;;21.90;64.40;;;;;;6233220;28;20405;-78
2023/09/15 06:23:39;;;;;;;7.88;3.65;;;21.90;64.40;;;;;;6222007;28;20100;-78
2023/09/15 06:26:39;;;;;;;6.38;2.92;;;21.80;64.40;;;;;;6202142;28;20034;-77
2023/09/15 06:29:40;;;;;;;10.90;3.45;;;21.80;64.50;;;;;;6212038;28;20040;-78
2023/09/15 06:32:44;;;;;;;6.35;3.17;;;21.80;64.70;;;;;;6231820;28;20582;-77
2023/09/15 06:35:45;;;;;;;11.63;4.03;;;21.80;64.90;;;;;;6215679;28;20030;-77
2023/09/15 06:38:46;;;;;;;17.77;3.63;;;21.80;64.80;;;;;;6215927;28;20108;-77
2023/09/15 06:41:47;;;;;;;7.65;3.45;;;21.80;64.70;;;;;;6215650;28;20049;-77
2023/09/15 06:44:56;;;;;;;11.20;3.72;;;21.90;64.60;;;;;;6223842;28;20147;-77
2023/09/15 06:47:59;;;;;;;8.15;3.20;;;22.00;64.40;;;;;;6241516;28;20410;-77
2023/09/15 06:50:59;;;;;;;7.53;3.10;;;22.00;64.10;;;;;;6222813;28;20118;-77
2023/09/15 06:54:00;;;;;;;6.65;3.55;;;22.10;64.00;;;;;;6241487;28;20049;-78
2023/09/15 06:57:02;;;;;;;5.55;3.15;;;22.20;63.80;;;;;;6240778;28;20025;-77
2023/09/15 07:00:03;;;;;;;17.40;3.85;;;22.30;63.70;;;;;;6239622;28;20476;-77
2023/09/15 07:03:04;;;;;;;7.75;3.55;;;22.40;63.40;;;;;;6239625;28;20038;-77
2023/09/15 07:06:05;;;;;;;5.47;3.33;;;22.50;63.10;;;;;;6241259;28;20029;-77
2023/09/15 07:09:06;;;;;;;9.38;3.25;;;22.60;62.60;;;;;;6241254;28;20040;-80
2023/09/15 07:12:08;;;;;;;13.95;3.63;;;22.70;62.00;;;;;;6241434;28;20490;-78
2023/09/15 07:15:09;;;;;;;6.78;3.50;;;22.70;61.70;;;;;;6240824;28;20030;-78
2023/09/15 07:18:10;;;;;;;6.28;3.47;;;22.80;61.40;;;;;;6239035;28;20133;-77
2023/09/15 07:21:11;;;;;;;4.70;3.03;;;22.90;61.10;;;;;;6240054;28;20127;-79
2023/09/15 07:24:12;;;;;;;5.90;3.45;;;23.00;60.90;;;;;;6240876;28;20064;-78
2023/09/15 07:27:15;;;;;;;5.15;3.30;;;23.20;60.60;;;;;;6240283;28;20390;-77
2023/09/15 07:30:16;;;;;;;6.57;3.95;;;23.30;60.00;;;;;;6238918;28;20033;-77
2023/09/15 07:33:19;;;;;;;5.38;3.03;;;23.40;59.80;;;;;;6239063;28;20027;-79
2023/09/15 07:36:25;;;;;;;9.45;3.40;;;23.50;59.60;;;;;;6240453;28;20083;-77
2023/09/15 07:39:29;;;;;;;5.10;3.25;;;23.70;59.40;;;;;;6238866;28;20106;-76
2023/09/15 07:42:30;;;;;;;14.40;3.40;;;23.80;59.10;;;;;;6239124;28;20037;-78
2023/09/15 07:45:31;;;;;;;3.55;2.42;;;23.80;58.70;;;;;;6238011;28;20088;-76
2023/09/15 07:48:31;;;;;;;3.58;2.42;;;23.90;58.30;;;;;;6238065;28;20037;-78
2023/09/15 07:51:32;;;;;;;6.95;2.90;;;23.90;58.10;;;;;;6239573;28;20095;-77
2023/09/15 07:54:33;;;;;;;4.18;2.60;;;24.00;58.10;;;;;;6238575;28;20423;-78
2023/09/15 07:57:34;;;;;;;7.50;3.10;;;24.00;57.80;;;;;;6240026;28;20083;-78
2023/09/15 08:00:35;;;;;;;5.68;2.35;;;24.10;57.50;;;;;;6233858;28;20450;-77
2023/09/15 08:03:36;;;;;;;4.60;2.40;;;24.10;57.40;;;;;;6222047;28;20053;-79
2023/09/15 08:06:36;;;;;;;6.78;3.20;;;24.20;57.30;;;;;;6213491;28;20352;-78
2023/09/15 08:09:37;;;;;;;10.07;3.38;;;24.30;57.20;;;;;;6214874;28;20095;-78
2023/09/15 08:12:38;;;;;;;6.47;2.75;;;24.50;57.10;;;;;;6234266;28;20078;-77
2023/09/15 08:15:40;;;;;;;6.15;3.00;;;24.50;56.20;;;;;;6239733;28;20037;-77
2023/09/15 08:18:40;;;;;;;4.13;2.58;;;24.70;56.10;;;;;;6239685;28;20048;-77
2023/09/15 08:21:41;;;;;;;4.03;2.40;;;24.90;55.80;;;;;;6237859;28;20084;-80
2023/09/15 08:24:42;;;;;;;4.40;2.42;;;25.00;55.70;;;;;;6237787;28;20033;-78
2023/09/15 08:27:46;;;;;;;5.18;2.47;;;25.10;55.30;;;;;;6237750;28;20513;-78
2023/09/15 08:30:49;;;;;;;5.22;2.78;;;25.20;55.00;;;;;;6237331;28;20040;-78
2023/09/15 08:33:50;;;;;;;10.15;2.88;;;25.40;54.80;;;;;;6239032;28;20037;-79
2023/09/15 08:36:51;;;;;;;4.38;2.35;;;25.50;54.50;;;;;;6238792;28;20082;-78
2023/09/15 08:39:51;;;;;;;3.35;2.40;;;25.60;54.00;;;;;;6238436;28;20055;-76
2023/09/15 08:42:52;;;;;;;3.15;2.30;;;25.70;53.50;;;;;;6237533;28;20044;-77
2023/09/15 08:45:55;;;;;;;4.70;2.75;;;25.80;53.60;;;;;;6237049;28;20179;-77
2023/09/15 08:48:57;;;;;;;1.85;1.67;;;25.90;53.10;;;;;;6221228;28;20143;-77
2023/09/15 08:51:59;;;;;;;7.13;1.92;;;25.90;52.30;;;;;;6236986;28;20037;-77
2023/09/15 08:55:01;;;;;;;8.32;2.75;;;25.90;52.00;;;;;;6238000;28;20163;-77
2023/09/15 08:58:04;;;;;;;4.15;2.65;;;25.90;52.00;;;;;;6219807;28;20504;-77
2023/09/15 09:01:07;;;;;;;6.07;2.75;;;25.90;51.90;;;;;;6237227;28;20033;-77
2023/09/15 09:04:10;;;;;;;3.65;2.50;;;26.00;52.00;;;;;;6237649;28;20045;-77
2023/09/15 09:07:12;;;;;;;3.25;1.98;;;26.10;51.80;;;;;;6237945;28;20036;-78
2023/09/15 09:10:13;;;;;;;6.78;2.47;;;26.20;51.40;;;;;;6236565;28;20094;-78
2023/09/15 09:13:14;;;;;;;7.07;2.75;;;26.30;51.10;;;;;;6211998;28;20128;-78
2023/09/15 09:16:16;;;;;;;6.32;3.13;;;26.30;51.10;;;;;;6211760;28;20321;-76
2023/09/15 09:19:16;;;;;;;10.27;3.80;;;26.40;51.30;;;;;;6202203;28;20030;-77
2023/09/15 09:22:18;;;;;;;3.10;2.33;;;26.50;51.30;;;;;;6236449;28;20037;-77
2023/09/15 09:25:30;;;;;;;5.20;2.60;;;26.60;51.00;;;;;;6236724;28;20112;-77
2023/09/15 09:28:30;;;;;;;4.38;2.22;;;26.70;50.40;;;;;;6219567;28;20132;-77
2023/09/15 09:31:31;;;;;;;4.63;2.72;;;26.70;50.10;;;;;;6236926;28;20025;-77
2023/09/15 09:34:32;;;;;;;6.03;3.60;;;26.70;49.80;;;;;;6219371;28;20037;-77
2023/09/15 09:37:33;;;;;;;4.97;2.83;;;26.70;50.60;;;;;;6237575;28;20075;-77
2023/09/15 09:40:34;;;;;;;4.53;2.50;;;26.80;50.10;;;;;;6235970;28;20493;-78
2023/09/15 09:43:35;;;;;;;7.47;2.80;;;26.90;50.10;;;;;;6238016;28;20608;-77
2023/09/15 09:46:36;;;;;;;3.55;2.70;;;26.90;49.90;;;;;;6236907;28;20033;-77
2023/09/15 09:49:39;;;;;;;3.80;2.30;;;27.00;49.70;;;;;;6236231;28;20091;-77
2023/09/15 09:52:40;;;;;;;2.30;1.98;;;27.10;49.70;;;;;;6236357;28;20021;-76
2023/09/15 09:55:45;;;;;;;3.72;2.58;;;27.20;49.60;;;;;;6222841;28;20037;-76
2023/09/15 09:58:46;;;;;;;6.32;2.90;;;27.20;49.60;;;;;;6211576;28;20040;-77
2023/09/15 10:01:47;;;;;;;4.10;2.25;;;27.30;49.40;;;;;;6213271;28;20109;-76
2023/09/15 10:04:50;;;;;;;4.18;2.28;;;27.40;49.10;;;;;;6213732;28;20041;-76
2023/09/15 10:07:52;;;;;;;4.60;2.20;;;27.50;48.90;;;;;;6215959;28;20034;-77
2023/09/15 10:10:53;;;;;;;5.00;2.72;;;27.60;48.80;;;;;;6221752;28;20064;-77
2023/09/15 10:13:56;;;;;;;5.43;2.05;;;27.60;49.30;;;;;;6241578;28;20110;-77
2023/09/15 10:16:58;;;;;;;6.28;2.95;;;27.70;48.50;;;;;;6223349;28;20053;-79
2023/09/15 10:19:59;;;;;;;6.25;3.17;;;27.80;48.10;;;;;;6241409;28;20041;-78
2023/09/15 10:23:00;;;;;;;4.68;2.45;;;27.80;47.60;;;;;;6240223;28;20072;-78
2023/09/15 10:26:06;;;;;;;6.78;2.70;;;27.80;47.40;;;;;;6241841;28;20059;-78
2023/09/15 10:29:14;;;;;;;3.85;2.70;;;27.80;47.60;;;;;;6239809;28;20048;-78
2023/09/15 10:32:17;;;;;;;3.75;2.60;;;27.90;47.70;;;;;;6241448;28;20421;-76
2023/09/15 10:35:18;;;;;;;4.47;2.63;;;28.10;47.50;;;;;;6239686;28;20041;-78
2023/09/15 10:38:29;;;;;;;5.35;3.00;;;28.40;46.90;;;;;;6239908;28;20041;-78
2023/09/15 10:41:30;;;;;;;3.60;2.20;;;28.70;45.80;;;;;;6241379;28;20492;-77
2023/09/15 10:44:31;;;;;;;5.75;2.15;;;29.00;44.70;;;;;;6241553;28;20026;-78
2023/09/15 10:47:32;;;;;;;4.20;2.40;;;29.10;43.70;;;;;;6240962;28;20143;-78
2023/09/15 10:50:35;;;;;;;3.25;2.55;;;29.30;43.60;;;;;;6240838;28;20044;-78
2023/09/15 10:53:47;;;;;;;7.10;3.83;;;29.50;43.80;;;;;;6241479;28;20079;-77
2023/09/15 10:56:49;;;;;;;4.05;2.63;;;29.70;43.30;;;;;;6239067;28;20100;-77
2023/09/15 10:59:51;;;;;;;3.92;2.42;;;30.00;42.90;;;;;;6240298;28;20105;-76
2023/09/15 11:02:52;;;;;;;5.95;2.72;;;30.20;43.00;;;;;;6238208;28;20061;-77
2023/09/15 11:05:55;;;;;;;3.50;2.30;;;30.50;42.80;;;;;;6238668;28;20037;-77
2023/09/15 11:08:57;;;;;;;4.13;2.47;;;30.80;42.40;;;;;;6223085;28;20068;-77
2023/09/15 11:12:02;;;;;;;3.35;2.25;;;31.20;42.00;;;;;;6240068;28;20026;-78
2023/09/15 11:15:03;;;;;;;2.58;1.80;;;31.50;41.60;;;;;;6240997;28;20116;-78
2023/09/15 11:18:04;;;;;;;5.40;2.40;;;31.80;41.00;;;;;;6239231;28;20136;-77
2023/09/15 11:21:06;;;;;;;7.90;2.70;;;32.10;40.60;;;;;;6240023;28;20056;-77
2023/09/15 11:24:09;;;;;;;5.10;2.15;;;32.40;40.00;;;;;;6238747;28;20037;-76
2023/09/15 11:27:14;;;;;;;3.92;2.45;;;32.70;39.50;;;;;;6238664;28;20061;-78
2023/09/15 11:30:23;;;;;;;3.85;2.70;;;32.90;38.80;;;;;;6238637;28;20041;-78
2023/09/15 11:33:25;;;;;;;6.47;2.70;;;33.20;38.20;;;;;;6240172;28;20351;-76
2023/09/15 11:36:26;;;;;;;8.98;2.38;;;33.50;37.90;;;;;;6240050;28;20017;-76
2023/09/15 11:39:31;;;;;;;4.03;2.50;;;33.70;37.00;;;;;;6239609;28;20140;-74
2023/09/15 11:42:31;;;;;;;4.85;2.45;;;33.90;36.30;;;;;;6238551;28;20136;-77
2023/09/15 11:45:32;;;;;;;3.13;2.20;;;34.00;35.70;;;;;;6239206;28;20036;-77
2023/09/15 11:48:38;;;;;;;3.22;2.22;;;34.00;35.20;;;;;;6238388;28;20569;-78
2023/09/15 11:51:43;;;;;;;3.83;2.50;;;34.10;35.10;;;;;;6237983;28;20030;-75
2023/09/15 11:54:45;;;;;;;3.33;2.15;;;34.40;35.00;;;;;;6238288;28;20026;-75
2023/09/15 11:57:47;;;;;;;11.73;2.55;;;34.60;34.50;;;;;;6237938;28;20112;-77
2023/09/15 12:00:48;;;;;;;11.13;2.22;;;34.90;33.90;;;;;;6239581;28;20750;-78
2023/09/15 12:03:50;;;;;;;9.20;2.85;;;35.10;33.20;;;;;;6237838;28;20059;-77
2023/09/15 12:06:50;;;;;;;3.72;2.25;;;35.30;33.00;;;;;;6239131;28;20091;-77
2023/09/15 12:09:52;;;;;;;5.80;2.35;;;35.80;32.60;;;;;;6238942;28;20038;-77
2023/09/15 12:12:57;;;;;;;2.88;2.08;;;36.20;31.80;;;;;;6239842;28;20455;-76
2023/09/15 12:15:58;;;;;;;2.90;2.20;;;36.50;31.20;;;;;;6239977;28;20045;-76
2023/09/15 12:19:00;;;;;;;2.85;2.13;;;37.10;30.40;;;;;;6239273;28;20079;-78
2023/09/15 12:22:02;;;;;;;3.58;2.20;;;37.80;29.90;;;;;;6239512;28;20055;-77
2023/09/15 12:25:03;;;;;;;2.88;2.03;;;38.70;28.70;;;;;;6237850;28;20048;-77
2023/09/15 12:28:06;;;;;;;1.75;1.60;;;39.00;28.20;;;;;;6236969;28;20037;-78
2023/09/15 12:31:06;;;;;;;4.28;2.30;;;39.30;27.60;;;;;;6237061;28;20029;-76
2023/09/15 12:34:08;;;;;;;2.55;1.95;;;39.40;27.30;;;;;;6237224;28;20139;-78
2023/09/15 12:37:09;;;;;;;3.90;1.80;;;39.70;27.00;;;;;;6238578;28;20033;-78
2023/09/15 12:40:15;;;;;;;2.72;1.90;;;40.10;26.60;;;;;;6238546;28;20060;-76
2023/09/15 12:43:16;;;;;;;3.08;1.95;;;40.50;25.90;;;;;;6217518;28;20034;-77
2023/09/15 12:46:17;;;;;;;7.60;1.92;;;40.70;25.80;;;;;;6229855;28;20065;-77
2023/09/15 12:49:18;;;;;;;2.10;1.70;;;41.00;25.50;;;;;;6236200;28;20111;-78
2023/09/15 12:52:19;;;;;;;2.33;1.60;;;41.40;25.40;;;;;;6238399;28;20037;-77
2023/09/15 12:55:22;;;;;;;6.50;1.73;;;41.90;24.90;;;;;;6238291;28;20428;-77
2023/09/15 12:58:24;;;;;;;4.05;2.15;;;42.30;24.90;;;;;;6238383;28;20033;-78
2023/09/15 13:01:27;;;;;;;3.70;1.90;;;42.30;24.30;;;;;;6238009;28;20037;-77
2023/09/15 13:04:28;;;;;;;2.35;1.92;;;42.50;23.90;;;;;;6236925;28;20402;-77
2023/09/15 13:07:36;;;;;;;5.53;2.17;;;42.50;23.80;;;;;;6235837;28;20704;-78
2023/09/15 13:10:45;;;;;;;8.32;2.05;;;42.50;23.70;;;;;;6215231;28;20390;-76
2023/09/15 13:13:45;;;;;;;2.67;2.03;;;42.60;23.80;;;;;;6212772;28;20030;-78
2023/09/15 13:16:48;;;;;;;3.38;1.85;;;42.70;23.70;;;;;;6213431;28;20061;-77
2023/09/15 13:19:48;;;;;;;2.90;1.65;;;42.90;23.50;;;;;;6228005;28;20157;-77
2023/09/15 13:22:49;;;;;;;3.17;1.67;;;43.10;23.30;;;;;;6228437;28;20045;-79
2023/09/15 13:25:50;;;;;;;3.08;1.80;;;43.40;22.80;;;;;;6228630;28;20477;-75
2023/09/15 13:28:51;;;;;;;10.05;1.70;;;43.50;22.70;;;;;;6228658;28;20025;-78
2023/09/15 13:31:52;;;;;;;4.07;1.70;;;43.50;22.70;;;;;;6213436;28;20037;-78
2023/09/15 13:34:53;;;;;;;2.75;1.58;;;43.70;22.30;;;;;;6211592;28;20065;-76
2023/09/15 13:37:54;;;;;;;2.72;2.00;;;43.60;22.20;;;;;;6220052;28;20117;-76
2023/09/15 13:40:55;;;;;;;2.10;1.88;;;42.40;23.00;;;;;;6222521;28;20025;-77
2023/09/15 13:43:56;;;;;;;2.47;1.70;;;41.00;24.00;;;;;;6218112;28;20034;-78
2023/09/15 13:46:57;;;;;;;3.15;1.92;;;39.50;25.10;;;;;;6240776;28;20061;-77
2023/09/15 13:50:02;;;;;;;1.60;1.50;;;38.30;26.10;;;;;;6240544;28;20044;-77
2023/09/15 13:53:03;;;;;;;6.15;2.10;;;37.30;27.00;;;;;;6242788;28;20025;-77
2023/09/15 13:56:05;;;;;;;2.53;2.17;;;36.40;28.00;;;;;;6242060;28;20069;-77
2023/09/15 13:59:06;;;;;;;3.75;1.60;;;35.60;29.00;;;;;;6242402;28;20036;-76
2023/09/15 14:02:07;;;;;;;4.97;1.77;;;34.80;29.80;;;;;;6241857;28;20088;-77
2023/09/15 14:05:08;;;;;;;2.35;1.98;;;34.30;30.60;;;;;;6223769;28;20041;-76
2023/09/15 14:08:11;;;;;;;7.68;2.10;;;33.80;31.30;;;;;;6239777;28;20161;-77
2023/09/15 14:11:12;;;;;;;4.20;2.03;;;33.40;32.10;;;;;;6241609;28;20082;-78
2023/09/15 14:14:13;;;;;;;3.35;1.70;;;33.10;32.60;;;;;;6241940;28;20355;-78
2023/09/15 14:17:14;;;;;;;15.93;2.22;;;32.90;33.00;;;;;;6239492;28;20140;-78
2023/09/15 14:20:18;;;;;;;5.03;2.10;;;32.70;33.40;;;;;;6239711;28;20049;-77
2023/09/15 14:23:19;;;;;;;7.22;2.10;;;32.50;33.70;;;;;;6240311;28;20144;-77
2023/09/15 14:26:23;;;;;;;3.13;2.08;;;32.30;34.10;;;;;;6240085;28;20041;-78
2023/09/15 14:29:23;;;;;;;3.60;2.03;;;32.10;34.50;;;;;;6240167;28;20033;-78
2023/09/15 14:32:25;;;;;;;3.03;1.90;;;32.10;35.00;;;;;;6223904;28;20436;-77
2023/09/15 14:35:26;;;;;;;2.55;2.08;;;31.90;35.40;;;;;;6223088;28;20485;-78
2023/09/15 14:38:27;;;;;;;2.55;1.88;;;31.80;35.80;;;;;;6239856;28;20033;-75
2023/09/15 14:41:27;;;;;;;3.75;2.33;;;31.70;36.20;;;;;;6241604;28;20037;-77
2023/09/15 14:44:31;;;;;;;3.17;2.25;;;31.60;36.50;;;;;;6241292;28;20066;-78
2023/09/15 14:47:32;;;;;;;3.20;2.30;;;31.50;36.60;;;;;;6240700;28;20037;-77
2023/09/15 14:50:33;;;;;;;2.90;2.10;;;31.40;36.70;;;;;;6240163;28;20120;-76
2023/09/15 14:53:36;;;;;;;4.07;2.28;;;31.40;36.80;;;;;;6240974;28;20025;-78
2023/09/15 14:56:37;;;;;;;3.38;2.10;;;31.40;37.00;;;;;;6240984;28;20398;-77
2023/09/15 14:59:38;;;;;;;5.20;2.22;;;31.30;37.20;;;;;;6240847;28;20123;-78
2023/09/15 15:02:39;;;;;;;3.95;2.25;;;31.30;37.30;;;;;;6239342;28;20029;-78
2023/09/15 15:05:40;;;;;;;3.25;2.03;;;31.20;37.60;;;;;;6222394;28;20033;-79
2023/09/15 15:08:41;;;;;;;5.05;1.92;;;31.20;37.90;;;;;;6238404;28;20396;-77
2023/09/15 15:11:44;;;;;;;4.05;2.10;;;31.10;38.10;;;;;;6221999;28;20397;-77
2023/09/15 15:14:46;;;;;;;3.33;2.10;;;31.10;38.20;;;;;;6238921;28;20099;-79
2023/09/15 15:17:47;;;;;;;4.60;2.30;;;31.10;38.20;;;;;;6240185;28;20212;-78
2023/09/15 15:20:50;;;;;;;6.38;2.65;;;31.10;38.40;;;;;;6239989;28;20030;-77
2023/09/15 15:23:54;;;;;;;11.45;2.53;;;31.00;38.50;;;;;;6238027;28;20079;-77
2023/09/15 15:26:54;;;;;;;4.53;2.10;;;31.00;38.80;;;;;;6223624;28;20026;-78
2023/09/15 15:29:57;;;;;;;8.15;2.38;;;30.90;39.00;;;;;;6225572;28;20033;-78
2023/09/15 15:32:58;;;;;;;4.00;2.08;;;30.90;39.20;;;;;;6219143;28;20037;-77
2023/09/15 15:36:03;;;;;;;6.53;2.47;;;30.80;39.30;;;;;;6219427;28;20017;-76
2023/09/15 15:39:06;;;;;;;6.40;2.40;;;30.70;39.60;;;;;;6225768;28;20033;-76
2023/09/15 15:42:07;;;;;;;5.10;2.60;;;30.70;39.90;;;;;;6226188;28;20025;-79
2023/09/15 15:45:09;;;;;;;4.43;2.58;;;30.80;40.10;;;;;;6227975;28;20675;-78
2023/09/15 15:48:10;;;;;;;3.30;2.50;;;30.50;40.20;;;;;;6229144;28;20045;-75